sensor_id;sensor_type;location;lat;lon;timestamp;temperature;humidity
44461;DHT22;30162;53.642;10.640;2023-03-01T00:01:27;3.10;78.20
44461;DHT22;30162;53.642;10.640;2023-03-01T00:03:53;3.20;78.00
44461;DHT22;30162;53.642;10.640;2023-03-01T00:06:19;3.30;77.80
44461;DHT22;30162;53.642;10.640;2023-03-01T00:08:45;3.40;77.50
44461;DHT22;30162;53.642;10.640;2023-03-01T00:11:15;3.30;77.40
44461;DHT22;30162;53.642;10.640;2023-03-01T00:13:42;3.40;77.50
44461;DHT22;30162;53.642;10.640;2023-03-01T00:16:09;3.30;77.30
44461;DHT22;30162;53.642;10.640;2023-03-01T00:18:35;3.20;77.80
44461;DHT22;30162;53.642;10.640;2023-03-01T00:21:01;3.10;78.60
44461;DHT22;30162;53.642;10.640;2023-03-01T00:23:26;3.10;78.70
44461;DHT22;30162;53.642;10.640;2023-03-01T00:25:52;3.10;78.70
44461;DHT22;30162;53.642;10.640;2023-03-01T00:28:18;3.10;79.00
44461;DHT22;30162;53.642;10.640;2023-03-01T00:30:44;3.30;78.60
44461;DHT22;30162;53.642;10.640;2023-03-01T00:33:10;3.40;77.80
44461;DHT22;30162;53.642;10.640;2023-03-01T00:35:35;3.20;77.90
44461;DHT22;30162;53.642;10.640;2023-03-01T00:38:01;3.20;78.70
44461;DHT22;30162;53.642;10.640;2023-03-01T00:40:27;3.20;78.70
44461;DHT22;30162;53.642;10.640;2023-03-01T00:42:52;3.00;78.20
44461;DHT22;30162;53.642;10.640;2023-03-01T00:45:18;2.90;78.30
44461;DHT22;30162;53.642;10.640;2023-03-01T00:47:43;3.10;78.50
44461;DHT22;30162;53.642;10.640;2023-03-01T00:50:09;3.20;78.10
44461;DHT22;30162;53.642;10.640;2023-03-01T00:52:35;3.10;78.70
44461;DHT22;30162;53.642;10.640;2023-03-01T00:55:00;3.00;78.20
44461;DHT22;30162;53.642;10.640;2023-03-01T00:57:25;3.00;78.40
44461;DHT22;30162;53.642;10.640;2023-03-01T00:59:51;3.10;79.10
44461;DHT22;30162;53.642;10.640;2023-03-01T01:02:17;3.10;78.10
44461;DHT22;30162;53.642;10.640;2023-03-01T01:04:43;3.20;78.30
44461;DHT22;30162;53.642;10.640;2023-03-01T01:07:08;3.10;78.30
44461;DHT22;30162;53.642;10.640;2023-03-01T01:09:34;3.20;77.70
44461;DHT22;30162;53.642;10.640;2023-03-01T01:11:59;3.20;78.30
44461;DHT22;30162;53.642;10.640;2023-03-01T01:14:25;3.10;77.50
44461;DHT22;30162;53.642;10.640;2023-03-01T01:16:50;3.10;77.70
44461;DHT22;30162;53.642;10.640;2023-03-01T01:19:16;3.10;78.20
44461;DHT22;30162;53.642;10.640;2023-03-01T01:21:41;2.90;78.50
44461;DHT22;30162;53.642;10.640;2023-03-01T01:24:10;2.90;78.90
44461;DHT22;30162;53.642;10.640;2023-03-01T01:26:35;2.90;79.30
44461;DHT22;30162;53.642;10.640;2023-03-01T01:29:02;3.00;79.50
44461;DHT22;30162;53.642;10.640;2023-03-01T01:31:27;3.00;79.60
44461;DHT22;30162;53.642;10.640;2023-03-01T01:33:54;3.00;79.00
44461;DHT22;30162;53.642;10.640;2023-03-01T01:36:19;3.00;79.30
44461;DHT22;30162;53.642;10.640;2023-03-01T01:38:45;2.90;79.10
44461;DHT22;30162;53.642;10.640;2023-03-01T01:41:11;3.00;79.60
44461;DHT22;30162;53.642;10.640;2023-03-01T01:43:38;3.00;79.10
44461;DHT22;30162;53.642;10.640;2023-03-01T01:46:05;3.00;79.60
44461;DHT22;30162;53.642;10.640;2023-03-01T01:48:37;2.90;79.60
44461;DHT22;30162;53.642;10.640;2023-03-01T01:51:05;2.80;79.80
44461;DHT22;30162;53.642;10.640;2023-03-01T01:53:32;2.80;80.10
44461;DHT22;30162;53.642;10.640;2023-03-01T01:55:58;2.80;80.40
44461;DHT22;30162;53.642;10.640;2023-03-01T01:58:26;2.90;80.30
44461;DHT22;30162;53.642;10.640;2023-03-01T02:00:52;2.90;80.40
44461;DHT22;30162;53.642;10.640;2023-03-01T02:03:19;2.90;80.10
44461;DHT22;30162;53.642;10.640;2023-03-01T02:08:20;2.80;80.00
44461;DHT22;30162;53.642;10.640;2023-03-01T02:10:46;2.60;80.70
44461;DHT22;30162;53.642;10.640;2023-03-01T02:15:41;2.50;81.20
44461;DHT22;30162;53.642;10.640;2023-03-01T02:18:09;2.40;81.30
44461;DHT22;30162;53.642;10.640;2023-03-01T02:20:55;2.40;81.80
44461;DHT22;30162;53.642;10.640;2023-03-01T02:23:25;2.60;81.90
44461;DHT22;30162;53.642;10.640;2023-03-01T02:25:52;2.90;81.30
44461;DHT22;30162;53.642;10.640;2023-03-01T02:28:23;2.90;80.60
44461;DHT22;30162;53.642;10.640;2023-03-01T02:30:48;3.00;80.40
44461;DHT22;30162;53.642;10.640;2023-03-01T02:33:34;3.00;80.30
44461;DHT22;30162;53.642;10.640;2023-03-01T02:36:02;3.00;79.90
44461;DHT22;30162;53.642;10.640;2023-03-01T02:38:28;3.00;80.30
44461;DHT22;30162;53.642;10.640;2023-03-01T02:40:54;3.10;80.10
44461;DHT22;30162;53.642;10.640;2023-03-01T02:43:19;3.20;80.00
44461;DHT22;30162;53.642;10.640;2023-03-01T02:45:49;3.20;79.60
44461;DHT22;30162;53.642;10.640;2023-03-01T02:48:15;3.10;79.60
44461;DHT22;30162;53.642;10.640;2023-03-01T02:53:11;3.10;79.80
44461;DHT22;30162;53.642;10.640;2023-03-01T02:55:38;3.00;80.20
44461;DHT22;30162;53.642;10.640;2023-03-01T02:58:03;3.20;80.30
44461;DHT22;30162;53.642;10.640;2023-03-01T03:00:34;3.10;79.40
44461;DHT22;30162;53.642;10.640;2023-03-01T03:03:00;3.10;80.30
44461;DHT22;30162;53.642;10.640;2023-03-01T03:05:27;3.10;80.00
44461;DHT22;30162;53.642;10.640;2023-03-01T03:07:53;3.00;80.60
44461;DHT22;30162;53.642;10.640;2023-03-01T03:10:23;2.90;81.10
44461;DHT22;30162;53.642;10.640;2023-03-01T03:12:50;2.90;81.70
44461;DHT22;30162;53.642;10.640;2023-03-01T03:15:16;2.90;81.50
44461;DHT22;30162;53.642;10.640;2023-03-01T03:17:42;2.80;81.60
44461;DHT22;30162;53.642;10.640;2023-03-01T03:20:09;2.80;81.50
44461;DHT22;30162;53.642;10.640;2023-03-01T03:22:40;2.80;81.90
44461;DHT22;30162;53.642;10.640;2023-03-01T03:25:09;2.80;82.30
44461;DHT22;30162;53.642;10.640;2023-03-01T03:27:36;2.70;82.50
44461;DHT22;30162;53.642;10.640;2023-03-01T03:30:01;2.60;82.30
44461;DHT22;30162;53.642;10.640;2023-03-01T03:32:27;2.40;83.50
44461;DHT22;30162;53.642;10.640;2023-03-01T03:34:52;2.20;84.10
44461;DHT22;30162;53.642;10.640;2023-03-01T03:37:18;2.40;84.80
44461;DHT22;30162;53.642;10.640;2023-03-01T03:40:02;2.80;84.50
44461;DHT22;30162;53.642;10.640;2023-03-01T03:42:28;3.00;83.50
44461;DHT22;30162;53.642;10.640;2023-03-01T03:44:53;3.20;83.60
44461;DHT22;30162;53.642;10.640;2023-03-01T03:47:19;3.40;82.80
44461;DHT22;30162;53.642;10.640;2023-03-01T03:49:44;3.20;82.20
44461;DHT22;30162;53.642;10.640;2023-03-01T03:52:10;3.20;81.60
44461;DHT22;30162;53.642;10.640;2023-03-01T03:54:39;3.30;81.70
44461;DHT22;30162;53.642;10.640;2023-03-01T03:57:05;3.20;82.30
44461;DHT22;30162;53.642;10.640;2023-03-01T03:59:30;3.30;81.80
44461;DHT22;30162;53.642;10.640;2023-03-01T04:01:56;3.30;82.50
44461;DHT22;30162;53.642;10.640;2023-03-01T04:04:21;3.40;82.50
44461;DHT22;30162;53.642;10.640;2023-03-01T04:06:46;3.40;82.70
44461;DHT22;30162;53.642;10.640;2023-03-01T04:09:13;3.40;83.20
44461;DHT22;30162;53.642;10.640;2023-03-01T04:11:39;3.40;83.50
44461;DHT22;30162;53.642;10.640;2023-03-01T04:14:04;3.50;83.70
44461;DHT22;30162;53.642;10.640;2023-03-01T04:16:30;3.60;83.10
44461;DHT22;30162;53.642;10.640;2023-03-01T04:18:55;3.50;83.80
44461;DHT22;30162;53.642;10.640;2023-03-01T04:21:21;3.50;84.50
44461;DHT22;30162;53.642;10.640;2023-03-01T04:23:46;3.60;84.30
44461;DHT22;30162;53.642;10.640;2023-03-01T04:26:12;3.60;84.30
44461;DHT22;30162;53.642;10.640;2023-03-01T04:28:41;3.60;84.30
44461;DHT22;30162;53.642;10.640;2023-03-01T04:31:13;3.50;85.10
44461;DHT22;30162;53.642;10.640;2023-03-01T04:33:44;3.70;85.50
44461;DHT22;30162;53.642;10.640;2023-03-01T04:36:10;3.80;85.00
44461;DHT22;30162;53.642;10.640;2023-03-01T04:38:37;3.90;84.60
44461;DHT22;30162;53.642;10.640;2023-03-01T04:41:04;3.90;84.20
44461;DHT22;30162;53.642;10.640;2023-03-01T04:43:29;4.00;84.50
44461;DHT22;30162;53.642;10.640;2023-03-01T04:45:59;4.20;84.50
44461;DHT22;30162;53.642;10.640;2023-03-01T04:48:25;4.20;84.50
44461;DHT22;30162;53.642;10.640;2023-03-01T04:50:50;4.10;84.80
44461;DHT22;30162;53.642;10.640;2023-03-01T04:53:15;4.10;84.60
44461;DHT22;30162;53.642;10.640;2023-03-01T04:55:41;3.80;85.20
44461;DHT22;30162;53.642;10.640;2023-03-01T04:58:06;3.90;86.10
44461;DHT22;30162;53.642;10.640;2023-03-01T05:00:32;3.90;85.60
44461;DHT22;30162;53.642;10.640;2023-03-01T05:02:59;4.00;85.10
44461;DHT22;30162;53.642;10.640;2023-03-01T05:05:29;4.00;85.50
44461;DHT22;30162;53.642;10.640;2023-03-01T05:07:56;4.10;84.40
44461;DHT22;30162;53.642;10.640;2023-03-01T05:10:22;3.90;84.20
44461;DHT22;30162;53.642;10.640;2023-03-01T05:12:47;4.00;85.70
44461;DHT22;30162;53.642;10.640;2023-03-01T05:15:13;4.00;84.30
44461;DHT22;30162;53.642;10.640;2023-03-01T05:17:39;4.00;84.70
44461;DHT22;30162;53.642;10.640;2023-03-01T05:20:04;4.10;84.60
44461;DHT22;30162;53.642;10.640;2023-03-01T05:22:36;4.00;84.50
44461;DHT22;30162;53.642;10.640;2023-03-01T05:25:02;4.00;85.30
44461;DHT22;30162;53.642;10.640;2023-03-01T05:27:28;4.00;85.50
44461;DHT22;30162;53.642;10.640;2023-03-01T05:29:55;4.00;86.00
44461;DHT22;30162;53.642;10.640;2023-03-01T05:32:20;4.10;86.10
44461;DHT22;30162;53.642;10.640;2023-03-01T05:34:46;4.20;85.80
44461;DHT22;30162;53.642;10.640;2023-03-01T05:37:12;3.90;86.20
44461;DHT22;30162;53.642;10.640;2023-03-01T05:39:37;4.00;86.70
44461;DHT22;30162;53.642;10.640;2023-03-01T05:42:03;4.20;86.90
44461;DHT22;30162;53.642;10.640;2023-03-01T05:44:28;4.30;86.70
44461;DHT22;30162;53.642;10.640;2023-03-01T05:46:54;4.40;86.20
44461;DHT22;30162;53.642;10.640;2023-03-01T05:49:20;4.30;86.10
44461;DHT22;30162;53.642;10.640;2023-03-01T05:51:49;4.40;86.80
44461;DHT22;30162;53.642;10.640;2023-03-01T05:54:15;4.40;86.10
44461;DHT22;30162;53.642;10.640;2023-03-01T05:56:41;4.10;86.20
44461;DHT22;30162;53.642;10.640;2023-03-01T05:59:07;4.20;86.90
44461;DHT22;30162;53.642;10.640;2023-03-01T06:01:33;4.30;86.90
44461;DHT22;30162;53.642;10.640;2023-03-01T06:03:58;4.20;87.10
44461;DHT22;30162;53.642;10.640;2023-03-01T06:06:24;4.40;87.80
44461;DHT22;30162;53.642;10.640;2023-03-01T06:08:50;4.30;87.10
44461;DHT22;30162;53.642;10.640;2023-03-01T06:11:16;4.40;87.90
44461;DHT22;30162;53.642;10.640;2023-03-01T06:13:42;4.10;88.10
44461;DHT22;30162;53.642;10.640;2023-03-01T06:16:07;4.40;88.40
44461;DHT22;30162;53.642;10.640;2023-03-01T06:18:33;4.60;88.00
44461;DHT22;30162;53.642;10.640;2023-03-01T06:20:59;4.70;87.60
44461;DHT22;30162;53.642;10.640;2023-03-01T06:23:25;4.70;87.30
44461;DHT22;30162;53.642;10.640;2023-03-01T06:25:50;4.70;86.90
44461;DHT22;30162;53.642;10.640;2023-03-01T06:28:16;4.60;87.70
44461;DHT22;30162;53.642;10.640;2023-03-01T06:30:41;4.70;88.20
44461;DHT22;30162;53.642;10.640;2023-03-01T06:33:07;4.80;87.30
44461;DHT22;30162;53.642;10.640;2023-03-01T06:35:32;4.80;87.60
44461;DHT22;30162;53.642;10.640;2023-03-01T06:37:59;4.60;88.30
44461;DHT22;30162;53.642;10.640;2023-03-01T06:40:24;4.70;88.90
44461;DHT22;30162;53.642;10.640;2023-03-01T06:42:50;4.70;89.00
44461;DHT22;30162;53.642;10.640;2023-03-01T06:45:16;4.80;88.90
44461;DHT22;30162;53.642;10.640;2023-03-01T06:47:42;5.00;88.70
44461;DHT22;30162;53.642;10.640;2023-03-01T06:50:08;5.00;88.30
44461;DHT22;30162;53.642;10.640;2023-03-01T06:52:33;5.00;87.90
44461;DHT22;30162;53.642;10.640;2023-03-01T06:54:59;5.10;88.00
44461;DHT22;30162;53.642;10.640;2023-03-01T06:57:24;5.20;87.70
44461;DHT22;30162;53.642;10.640;2023-03-01T06:59:50;5.10;88.20
44461;DHT22;30162;53.642;10.640;2023-03-01T07:02:15;5.10;88.30
44461;DHT22;30162;53.642;10.640;2023-03-01T07:04:41;5.20;87.40
44461;DHT22;30162;53.642;10.640;2023-03-01T07:07:07;5.10;87.90
44461;DHT22;30162;53.642;10.640;2023-03-01T07:09:32;5.20;88.10
44461;DHT22;30162;53.642;10.640;2023-03-01T07:11:57;5.40;87.80
44461;DHT22;30162;53.642;10.640;2023-03-01T07:14:23;5.30;87.70
44461;DHT22;30162;53.642;10.640;2023-03-01T07:16:52;5.20;87.90
44461;DHT22;30162;53.642;10.640;2023-03-01T07:19:17;5.30;88.50
44461;DHT22;30162;53.642;10.640;2023-03-01T07:21:43;5.50;88.20
44461;DHT22;30162;53.642;10.640;2023-03-01T07:24:08;5.60;87.80
44461;DHT22;30162;53.642;10.640;2023-03-01T07:26:34;5.70;87.20
44461;DHT22;30162;53.642;10.640;2023-03-01T07:29:00;5.70;87.10
44461;DHT22;30162;53.642;10.640;2023-03-01T07:31:26;5.70;87.50
44461;DHT22;30162;53.642;10.640;2023-03-01T07:33:53;5.70;87.40
44461;DHT22;30162;53.642;10.640;2023-03-01T07:36:19;5.70;87.80
44461;DHT22;30162;53.642;10.640;2023-03-01T07:38:44;5.90;87.30
44461;DHT22;30162;53.642;10.640;2023-03-01T07:41:09;5.80;87.30
44461;DHT22;30162;53.642;10.640;2023-03-01T07:43:35;5.90;87.30
44461;DHT22;30162;53.642;10.640;2023-03-01T07:46:01;6.00;87.10
44461;DHT22;30162;53.642;10.640;2023-03-01T07:48:27;6.20;86.70
44461;DHT22;30162;53.642;10.640;2023-03-01T07:50:52;6.30;87.10
44461;DHT22;30162;53.642;10.640;2023-03-01T07:53:18;6.50;87.00
44461;DHT22;30162;53.642;10.640;2023-03-01T07:55:43;6.60;86.20
44461;DHT22;30162;53.642;10.640;2023-03-01T07:58:09;6.80;85.20
44461;DHT22;30162;53.642;10.640;2023-03-01T08:00:34;7.20;85.40
44461;DHT22;30162;53.642;10.640;2023-03-01T08:03:00;8.00;83.90
44461;DHT22;30162;53.642;10.640;2023-03-01T08:05:28;8.70;80.70
44461;DHT22;30162;53.642;10.640;2023-03-01T08:07:54;9.50;79.50
44461;DHT22;30162;53.642;10.640;2023-03-01T08:10:19;10.00;77.40
44461;DHT22;30162;53.642;10.640;2023-03-01T08:12:45;10.70;76.10
44461;DHT22;30162;53.642;10.640;2023-03-01T08:15:12;11.20;74.40
44461;DHT22;30162;53.642;10.640;2023-03-01T08:17:37;11.70;73.80
44461;DHT22;30162;53.642;10.640;2023-03-01T08:20:03;12.00;71.80
44461;DHT22;30162;53.642;10.640;2023-03-01T08:22:31;12.20;72.10
44461;DHT22;30162;53.642;10.640;2023-03-01T08:24:56;12.20;71.40
44461;DHT22;30162;53.642;10.640;2023-03-01T08:27:22;12.60;71.30
44461;DHT22;30162;53.642;10.640;2023-03-01T08:29:47;13.00;69.90
44461;DHT22;30162;53.642;10.640;2023-03-01T08:32:13;13.20;68.60
44461;DHT22;30162;53.642;10.640;2023-03-01T08:34:38;13.60;68.20
44461;DHT22;30162;53.642;10.640;2023-03-01T08:37:03;13.70;68.20
44461;DHT22;30162;53.642;10.640;2023-03-01T08:39:29;13.70;68.40
44461;DHT22;30162;53.642;10.640;2023-03-01T08:41:54;13.80;67.90
44461;DHT22;30162;53.642;10.640;2023-03-01T08:44:20;14.20;68.00
44461;DHT22;30162;53.642;10.640;2023-03-01T08:46:48;14.70;66.50
44461;DHT22;30162;53.642;10.640;2023-03-01T08:49:16;14.70;65.80
44461;DHT22;30162;53.642;10.640;2023-03-01T08:51:42;14.60;66.30
44461;DHT22;30162;53.642;10.640;2023-03-01T08:54:14;14.30;66.60
44461;DHT22;30162;53.642;10.640;2023-03-01T08:56:40;14.50;68.00
44461;DHT22;30162;53.642;10.640;2023-03-01T08:59:06;15.10;66.00
44461;DHT22;30162;53.642;10.640;2023-03-01T09:01:31;15.40;65.20
44461;DHT22;30162;53.642;10.640;2023-03-01T09:03:57;15.60;64.90
44461;DHT22;30162;53.642;10.640;2023-03-01T09:06:23;15.60;64.80
44461;DHT22;30162;53.642;10.640;2023-03-01T09:08:48;15.50;65.00
44461;DHT22;30162;53.642;10.640;2023-03-01T09:11:16;15.50;64.90
44461;DHT22;30162;53.642;10.640;2023-03-01T09:13:42;15.50;64.90
44461;DHT22;30162;53.642;10.640;2023-03-01T09:16:07;15.60;64.80
44461;DHT22;30162;53.642;10.640;2023-03-01T09:18:33;15.60;64.70
44461;DHT22;30162;53.642;10.640;2023-03-01T09:21:10;15.60;65.30
44461;DHT22;30162;53.642;10.640;2023-03-01T09:23:36;15.60;65.40
44461;DHT22;30162;53.642;10.640;2023-03-01T09:26:04;15.50;65.60
44461;DHT22;30162;53.642;10.640;2023-03-01T09:28:30;15.70;65.50
44461;DHT22;30162;53.642;10.640;2023-03-01T09:30:59;16.10;65.00
44461;DHT22;30162;53.642;10.640;2023-03-01T09:33:25;16.00;64.50
44461;DHT22;30162;53.642;10.640;2023-03-01T09:35:55;15.60;65.40
44461;DHT22;30162;53.642;10.640;2023-03-01T09:38:21;15.90;64.90
44461;DHT22;30162;53.642;10.640;2023-03-01T09:40:46;16.00;65.00
44461;DHT22;30162;53.642;10.640;2023-03-01T09:43:23;16.10;64.50
44461;DHT22;30162;53.642;10.640;2023-03-01T09:45:51;16.10;64.20
44461;DHT22;30162;53.642;10.640;2023-03-01T09:48:19;16.10;64.40
44461;DHT22;30162;53.642;10.640;2023-03-01T09:50:47;16.10;64.50
44461;DHT22;30162;53.642;10.640;2023-03-01T09:53:17;15.70;64.80
44461;DHT22;30162;53.642;10.640;2023-03-01T09:55:44;15.40;65.40
44461;DHT22;30162;53.642;10.640;2023-03-01T10:00:47;14.90;66.60
44461;DHT22;30162;53.642;10.640;2023-03-01T10:03:34;14.80;67.30
44461;DHT22;30162;53.642;10.640;2023-03-01T10:06:04;14.60;67.50
44461;DHT22;30162;53.642;10.640;2023-03-01T10:08:34;14.40;68.30
44461;DHT22;30162;53.642;10.640;2023-03-01T10:11:03;14.10;68.40
44461;DHT22;30162;53.642;10.640;2023-03-01T10:15:59;13.60;69.70
44461;DHT22;30162;53.642;10.640;2023-03-01T10:18:30;13.60;70.60
44461;DHT22;30162;53.642;10.640;2023-03-01T10:21:01;13.70;70.70
44461;DHT22;30162;53.642;10.640;2023-03-01T10:23:28;13.90;70.40
44461;DHT22;30162;53.642;10.640;2023-03-01T10:26:01;14.00;69.90
44461;DHT22;30162;53.642;10.640;2023-03-01T10:31:11;13.80;70.20
44461;DHT22;30162;53.642;10.640;2023-03-01T10:33:37;13.90;71.20
44461;DHT22;30162;53.642;10.640;2023-03-01T10:36:05;13.80;70.50
44461;DHT22;30162;53.642;10.640;2023-03-01T10:38:31;13.70;70.80
44461;DHT22;30162;53.642;10.640;2023-03-01T10:41:00;13.80;71.30
44461;DHT22;30162;53.642;10.640;2023-03-01T10:43:32;13.90;70.80
44461;DHT22;30162;53.642;10.640;2023-03-01T10:46:16;14.10;70.90
44461;DHT22;30162;53.642;10.640;2023-03-01T10:48:50;14.10;70.60
44461;DHT22;30162;53.642;10.640;2023-03-01T10:51:30;14.30;69.70
44461;DHT22;30162;53.642;10.640;2023-03-01T10:53:55;14.40;70.30
44461;DHT22;30162;53.642;10.640;2023-03-01T10:56:21;14.70;69.30
44461;DHT22;30162;53.642;10.640;2023-03-01T10:58:57;14.60;68.70
44461;DHT22;30162;53.642;10.640;2023-03-01T11:04:03;14.70;67.40
44461;DHT22;30162;53.642;10.640;2023-03-01T11:06:28;14.60;67.20
44461;DHT22;30162;53.642;10.640;2023-03-01T11:08:54;14.60;67.60
44461;DHT22;30162;53.642;10.640;2023-03-01T11:11:23;14.70;66.50
44461;DHT22;30162;53.642;10.640;2023-03-01T11:13:55;14.50;67.40
44461;DHT22;30162;53.642;10.640;2023-03-01T11:16:24;14.40;67.80
44461;DHT22;30162;53.642;10.640;2023-03-01T11:18:58;14.70;68.40
44461;DHT22;30162;53.642;10.640;2023-03-01T11:21:24;14.90;66.60
44461;DHT22;30162;53.642;10.640;2023-03-01T11:23:50;14.90;67.70
44461;DHT22;30162;53.642;10.640;2023-03-01T11:26:16;14.80;67.10
44461;DHT22;30162;53.642;10.640;2023-03-01T11:28:42;14.80;68.00
44461;DHT22;30162;53.642;10.640;2023-03-01T11:31:10;14.80;67.70
44461;DHT22;30162;53.642;10.640;2023-03-01T11:33:44;15.00;68.30
44461;DHT22;30162;53.642;10.640;2023-03-01T11:38:39;14.90;66.80
44461;DHT22;30162;53.642;10.640;2023-03-01T11:41:06;15.00;66.40
44461;DHT22;30162;53.642;10.640;2023-03-01T11:51:05;14.90;64.70
44461;DHT22;30162;53.642;10.640;2023-03-01T11:53:48;14.90;65.60
44461;DHT22;30162;53.642;10.640;2023-03-01T11:56:19;14.80;65.10
44461;DHT22;30162;53.642;10.640;2023-03-01T12:06:31;14.90;64.50
44461;DHT22;30162;53.642;10.640;2023-03-01T12:09:02;14.90;64.30
44461;DHT22;30162;53.642;10.640;2023-03-01T12:11:51;14.90;64.10
44461;DHT22;30162;53.642;10.640;2023-03-01T12:14:26;14.90;63.10
44461;DHT22;30162;53.642;10.640;2023-03-01T12:17:00;14.70;63.80
44461;DHT22;30162;53.642;10.640;2023-03-01T12:19:36;14.80;63.50
44461;DHT22;30162;53.642;10.640;2023-03-01T12:22:13;14.70;62.20
44461;DHT22;30162;53.642;10.640;2023-03-01T12:30:00;14.60;62.90
44461;DHT22;30162;53.642;10.640;2023-03-01T12:32:36;14.80;62.30
44461;DHT22;30162;53.642;10.640;2023-03-01T12:40:53;14.10;62.40
44461;DHT22;30162;53.642;10.640;2023-03-01T12:46:06;14.00;63.80
44461;DHT22;30162;53.642;10.640;2023-03-01T12:48:40;14.10;63.60
44461;DHT22;30162;53.642;10.640;2023-03-01T12:51:08;14.30;63.90
44461;DHT22;30162;53.642;10.640;2023-03-01T12:53:36;14.50;62.90
44461;DHT22;30162;53.642;10.640;2023-03-01T12:56:08;14.30;63.00
44461;DHT22;30162;53.642;10.640;2023-03-01T12:58:49;14.10;63.40
44461;DHT22;30162;53.642;10.640;2023-03-01T13:06:12;14.00;62.60
44461;DHT22;30162;53.642;10.640;2023-03-01T13:09:03;14.00;61.90
44461;DHT22;30162;53.642;10.640;2023-03-01T13:11:30;14.00;61.90
44461;DHT22;30162;53.642;10.640;2023-03-01T13:16:40;13.90;61.40
44461;DHT22;30162;53.642;10.640;2023-03-01T13:19:09;14.00;62.50
44461;DHT22;30162;53.642;10.640;2023-03-01T13:21:37;14.00;61.00
44461;DHT22;30162;53.642;10.640;2023-03-01T13:24:03;14.20;61.90
44461;DHT22;30162;53.642;10.640;2023-03-01T13:26:28;14.30;61.40
44461;DHT22;30162;53.642;10.640;2023-03-01T13:28:54;14.10;62.30
44461;DHT22;30162;53.642;10.640;2023-03-01T13:33:54;14.00;63.20
44461;DHT22;30162;53.642;10.640;2023-03-01T13:46:48;13.70;64.50
44461;DHT22;30162;53.642;10.640;2023-03-01T13:49:14;13.60;65.30
44461;DHT22;30162;53.642;10.640;2023-03-01T13:51:41;13.70;64.10
44461;DHT22;30162;53.642;10.640;2023-03-01T13:54:09;13.70;64.60
44461;DHT22;30162;53.642;10.640;2023-03-01T13:56:37;13.50;65.10
44461;DHT22;30162;53.642;10.640;2023-03-01T13:59:04;13.50;65.10
44461;DHT22;30162;53.642;10.640;2023-03-01T14:01:34;13.60;65.20
44461;DHT22;30162;53.642;10.640;2023-03-01T14:04:00;13.60;64.50
44461;DHT22;30162;53.642;10.640;2023-03-01T14:09:02;13.50;64.20
44461;DHT22;30162;53.642;10.640;2023-03-01T14:19:09;13.70;64.20
44461;DHT22;30162;53.642;10.640;2023-03-01T14:21:38;13.60;63.70
44461;DHT22;30162;53.642;10.640;2023-03-01T14:24:03;13.40;63.90
44461;DHT22;30162;53.642;10.640;2023-03-01T14:26:29;13.30;63.30
44461;DHT22;30162;53.642;10.640;2023-03-01T14:28:56;13.40;63.40
44461;DHT22;30162;53.642;10.640;2023-03-01T14:31:35;13.40;63.00
44461;DHT22;30162;53.642;10.640;2023-03-01T14:34:01;13.40;63.30
44461;DHT22;30162;53.642;10.640;2023-03-01T14:36:28;13.40;63.30
44461;DHT22;30162;53.642;10.640;2023-03-01T14:38:53;13.40;63.70
44461;DHT22;30162;53.642;10.640;2023-03-01T14:41:20;13.30;63.70
44461;DHT22;30162;53.642;10.640;2023-03-01T14:44:05;13.40;63.50
44461;DHT22;30162;53.642;10.640;2023-03-01T14:46:38;13.40;63.10
44461;DHT22;30162;53.642;10.640;2023-03-01T14:49:06;13.30;63.90
44461;DHT22;30162;53.642;10.640;2023-03-01T14:51:35;13.20;64.20
44461;DHT22;30162;53.642;10.640;2023-03-01T14:54:01;13.20;64.60
44461;DHT22;30162;53.642;10.640;2023-03-01T14:56:26;13.00;65.20
44461;DHT22;30162;53.642;10.640;2023-03-01T14:58:53;13.10;65.40
44461;DHT22;30162;53.642;10.640;2023-03-01T15:01:18;13.00;66.10
44461;DHT22;30162;53.642;10.640;2023-03-01T15:03:45;13.00;66.70
44461;DHT22;30162;53.642;10.640;2023-03-01T15:06:14;12.80;67.60
44461;DHT22;30162;53.642;10.640;2023-03-01T15:08:41;12.60;68.30
44461;DHT22;30162;53.642;10.640;2023-03-01T15:13:51;12.60;69.00
44461;DHT22;30162;53.642;10.640;2023-03-01T15:16:18;12.50;69.10
44461;DHT22;30162;53.642;10.640;2023-03-01T15:18:45;12.30;69.80
44461;DHT22;30162;53.642;10.640;2023-03-01T15:21:18;12.20;70.30
44461;DHT22;30162;53.642;10.640;2023-03-01T15:23:49;12.20;70.50
44461;DHT22;30162;53.642;10.640;2023-03-01T15:26:21;12.20;70.60
44461;DHT22;30162;53.642;10.640;2023-03-01T15:28:52;12.20;71.00
44461;DHT22;30162;53.642;10.640;2023-03-01T15:31:24;12.20;71.30
44461;DHT22;30162;53.642;10.640;2023-03-01T15:33:51;12.10;71.20
44461;DHT22;30162;53.642;10.640;2023-03-01T15:38:55;11.90;72.20
44461;DHT22;30162;53.642;10.640;2023-03-01T15:41:32;11.70;73.40
44461;DHT22;30162;53.642;10.640;2023-03-01T15:43:58;11.50;73.40
44461;DHT22;30162;53.642;10.640;2023-03-01T15:48:51;11.40;74.50
44461;DHT22;30162;53.642;10.640;2023-03-01T15:51:18;11.20;74.90
44461;DHT22;30162;53.642;10.640;2023-03-01T15:53:48;11.10;75.30
44461;DHT22;30162;53.642;10.640;2023-03-01T15:56:14;11.00;75.70
44461;DHT22;30162;53.642;10.640;2023-03-01T15:58:40;10.90;76.10
44461;DHT22;30162;53.642;10.640;2023-03-01T16:01:16;10.70;76.80
44461;DHT22;30162;53.642;10.640;2023-03-01T16:03:42;10.80;76.60
44461;DHT22;30162;53.642;10.640;2023-03-01T16:06:10;10.80;76.70
44461;DHT22;30162;53.642;10.640;2023-03-01T16:08:37;10.90;76.50
44461;DHT22;30162;53.642;10.640;2023-03-01T16:11:04;10.80;76.40
44461;DHT22;30162;53.642;10.640;2023-03-01T16:13:31;10.70;77.20
44461;DHT22;30162;53.642;10.640;2023-03-01T16:15:57;10.70;78.40
44461;DHT22;30162;53.642;10.640;2023-03-01T16:18:22;10.60;79.00
44461;DHT22;30162;53.642;10.640;2023-03-01T16:20:48;10.60;79.30
44461;DHT22;30162;53.642;10.640;2023-03-01T16:23:14;10.60;79.10
44461;DHT22;30162;53.642;10.640;2023-03-01T16:25:39;10.30;79.60
44461;DHT22;30162;53.642;10.640;2023-03-01T16:28:05;10.30;80.10
44461;DHT22;30162;53.642;10.640;2023-03-01T16:30:34;10.40;80.10
44461;DHT22;30162;53.642;10.640;2023-03-01T16:33:00;10.10;80.40
44461;DHT22;30162;53.642;10.640;2023-03-01T16:35:26;10.00;81.00
44461;DHT22;30162;53.642;10.640;2023-03-01T16:37:51;10.00;81.10
44461;DHT22;30162;53.642;10.640;2023-03-01T16:40:20;10.10;80.90
44461;DHT22;30162;53.642;10.640;2023-03-01T16:42:49;10.00;81.20
44461;DHT22;30162;53.642;10.640;2023-03-01T16:45:15;10.00;80.80
44461;DHT22;30162;53.642;10.640;2023-03-01T16:47:40;9.90;81.40
44461;DHT22;30162;53.642;10.640;2023-03-01T16:50:06;9.60;81.80
44461;DHT22;30162;53.642;10.640;2023-03-01T16:52:32;9.50;82.10
44461;DHT22;30162;53.642;10.640;2023-03-01T16:54:58;9.20;82.50